createdAt,value
2023-01-17T00:01:14.625Z,96.00
2023-01-17T00:04:18.639Z,95.90
2023-01-17T00:07:22.574Z,95.90
2023-01-17T00:10:10.081Z,95.70
2023-01-17T00:13:04.675Z,95.60
2023-01-17T00:15:50.505Z,95.70
2023-01-17T00:18:37.038Z,95.40
2023-01-17T00:21:41.192Z,95.40
2023-01-17T00:24:46.748Z,95.50
2023-01-17T00:27:31.940Z,95.50
2023-01-17T00:30:17.819Z,95.50
2023-01-17T00:33:04.116Z,95.70
2023-01-17T00:35:49.913Z,95.80
2023-01-17T00:38:38.404Z,95.80
2023-01-17T00:41:23.728Z,95.70
2023-01-17T00:44:33.404Z,95.90
2023-01-17T00:47:37.188Z,95.90
2023-01-17T00:50:41.411Z,95.80
2023-01-17T00:53:45.192Z,95.70
2023-01-17T00:56:51.957Z,95.60
2023-01-17T00:59:56.376Z,95.70
2023-01-17T01:03:00.124Z,95.90
2023-01-17T01:06:04.014Z,96.10
2023-01-17T01:09:07.985Z,96.30
2023-01-17T01:12:11.726Z,96.40
2023-01-17T01:15:16.279Z,96.50
2023-01-17T01:18:27.639Z,96.50
2023-01-17T01:21:31.565Z,96.60
2023-01-17T01:24:36.791Z,96.70
2023-01-17T01:27:43.613Z,96.30
2023-01-17T01:30:47.373Z,96.10
2023-01-17T01:33:32.638Z,96.00
2023-01-17T01:36:18.328Z,96.00
2023-01-17T01:39:03.874Z,96.00
2023-01-17T01:41:49.546Z,95.90
2023-01-17T01:44:45.298Z,95.70
2023-01-17T01:47:38.648Z,95.50
2023-01-17T01:50:24.361Z,95.30
2023-01-17T01:53:10.645Z,95.10
2023-01-17T01:56:00.439Z,95.00
2023-01-17T01:58:49.573Z,95.00
2023-01-17T02:01:39.167Z,95.00
2023-01-17T02:04:27.545Z,95.10
2023-01-17T02:07:22.651Z,95.20
2023-01-17T02:10:09.758Z,95.30
2023-01-17T02:12:55.822Z,95.30
2023-01-17T02:16:08.650Z,95.40
2023-01-17T02:19:15.807Z,95.50
2023-01-17T02:22:35.358Z,95.80
2023-01-17T02:25:43.637Z,96.10
2023-01-17T02:28:46.330Z,95.80
2023-01-17T02:31:39.097Z,95.70
2023-01-17T02:34:48.737Z,95.80
2023-01-17T02:37:52.763Z,95.90
2023-01-17T02:40:58.628Z,96.00
2023-01-17T02:43:49.000Z,96.00
2023-01-17T02:46:46.001Z,96.10
2023-01-17T02:49:32.486Z,96.20
2023-01-17T02:52:35.880Z,96.40
2023-01-17T02:55:31.740Z,96.40
2023-01-17T02:58:31.692Z,96.30
2023-01-17T03:01:17.168Z,96.10
2023-01-17T03:04:05.331Z,96.00
2023-01-17T03:07:08.021Z,95.80
2023-01-17T03:09:59.516Z,95.90
2023-01-17T03:12:46.211Z,95.50
2023-01-17T03:15:31.771Z,95.00
2023-01-17T03:18:17.460Z,94.70
2023-01-17T03:21:05.072Z,93.90
2023-01-17T03:23:50.928Z,93.60
2023-01-17T03:26:38.869Z,93.90
2023-01-17T03:29:24.264Z,94.20
2023-01-17T03:32:09.877Z,94.00
2023-01-17T03:34:55.612Z,94.10
2023-01-17T03:37:41.970Z,94.20
2023-01-17T03:40:27.485Z,94.10
2023-01-17T03:43:14.398Z,93.90
2023-01-17T03:46:03.823Z,93.80
2023-01-17T03:48:49.452Z,94.00
2023-01-17T03:51:34.536Z,94.20
2023-01-17T03:54:20.404Z,94.30
2023-01-17T03:57:08.643Z,94.30
2023-01-17T03:59:57.067Z,94.30
2023-01-17T04:02:43.222Z,94.00
2023-01-17T04:05:28.938Z,93.80
2023-01-17T04:08:14.593Z,93.60
2023-01-17T04:11:00.391Z,93.50
2023-01-17T04:13:46.029Z,93.40
2023-01-17T04:16:34.944Z,93.30
2023-01-17T04:19:21.016Z,93.20
2023-01-17T04:22:06.913Z,93.30
2023-01-17T04:24:52.841Z,93.40
2023-01-17T04:27:38.360Z,93.60
2023-01-17T04:30:24.708Z,93.90
2023-01-17T04:33:09.911Z,94.00
2023-01-17T04:35:56.051Z,94.10
2023-01-17T04:38:41.816Z,94.10
2023-01-17T04:41:30.255Z,94.40
2023-01-17T04:44:16.465Z,94.10
2023-01-17T04:47:03.123Z,94.00
2023-01-17T04:49:48.804Z,93.90
2023-01-17T04:52:34.196Z,94.30
2023-01-17T04:55:19.696Z,94.00
2023-01-17T04:58:05.420Z,93.90
2023-01-17T05:00:51.674Z,93.90
2023-01-17T05:03:37.087Z,93.90
2023-01-17T05:06:25.772Z,93.80
2023-01-17T05:09:11.266Z,93.70
2023-01-17T05:11:56.869Z,93.60
2023-01-17T05:14:45.228Z,93.50
2023-01-17T05:17:30.342Z,93.50
2023-01-17T05:20:16.046Z,93.50
2023-01-17T05:23:05.331Z,93.50
2023-01-17T05:25:50.387Z,93.50
2023-01-17T05:28:42.113Z,93.50
2023-01-17T05:31:27.695Z,93.60
2023-01-17T05:34:17.475Z,93.50
2023-01-17T05:37:02.913Z,93.50
2023-01-17T05:39:48.607Z,93.50
2023-01-17T05:42:33.830Z,93.50
2023-01-17T05:45:21.556Z,93.50
2023-01-17T05:48:06.976Z,93.50
2023-01-17T05:50:52.582Z,93.50
2023-01-17T05:53:38.175Z,93.50
2023-01-17T05:56:23.572Z,93.50
2023-01-17T05:59:08.925Z,93.40
2023-01-17T06:01:54.600Z,93.30
2023-01-17T06:04:40.436Z,93.40
2023-01-17T06:07:28.306Z,93.40
2023-01-17T06:10:15.187Z,93.30
2023-01-17T06:13:09.623Z,93.30
2023-01-17T06:15:57.810Z,93.30
2023-01-17T06:18:43.585Z,93.30
2023-01-17T06:21:30.075Z,93.20
2023-01-17T06:24:15.486Z,93.10
2023-01-17T06:27:16.789Z,93.10
2023-01-17T06:30:05.219Z,93.10
2023-01-17T06:32:55.072Z,93.10
2023-01-17T06:35:46.623Z,93.00
2023-01-17T06:38:32.261Z,93.10
2023-01-17T06:41:17.701Z,93.10
2023-01-17T06:44:03.736Z,93.10
2023-01-17T06:46:48.959Z,93.10
2023-01-17T06:49:34.605Z,93.10
2023-01-17T06:52:19.955Z,93.40
2023-01-17T06:55:06.041Z,93.00
2023-01-17T06:57:55.725Z,92.90
2023-01-17T07:00:41.728Z,92.90
2023-01-17T07:03:27.479Z,92.90
2023-01-17T07:06:13.343Z,93.00
2023-01-17T07:08:59.119Z,92.60
2023-01-17T07:11:45.472Z,92.70
2023-01-17T07:14:31.323Z,92.50
2023-01-17T07:17:17.109Z,92.60
2023-01-17T07:20:02.597Z,92.50
2023-01-17T07:22:48.264Z,92.50
2023-01-17T07:25:33.818Z,92.50
2023-01-17T07:28:19.408Z,92.50
2023-01-17T07:31:06.935Z,92.60
2023-01-17T07:33:52.216Z,92.70
2023-01-17T07:36:40.579Z,92.80
2023-01-17T07:39:26.047Z,92.60
2023-01-17T07:42:11.652Z,92.60
2023-01-17T07:44:57.100Z,92.50
2023-01-17T07:47:42.991Z,92.40
2023-01-17T07:50:28.383Z,92.20
2023-01-17T07:53:13.872Z,92.20
2023-01-17T07:56:04.830Z,92.20
2023-01-17T07:58:50.144Z,92.30
2023-01-17T08:01:35.766Z,92.20
2023-01-17T08:04:21.345Z,92.10
2023-01-17T08:07:07.163Z,92.00
2023-01-17T08:09:54.735Z,92.00
2023-01-17T08:12:40.176Z,92.00
2023-01-17T08:15:26.770Z,91.90
2023-01-17T08:18:15.467Z,91.90
2023-01-17T08:21:01.244Z,92.00
2023-01-17T08:23:54.002Z,92.00
2023-01-17T08:26:39.536Z,91.80
2023-01-17T08:29:25.232Z,91.80
2023-01-17T08:32:10.879Z,91.70
2023-01-17T08:34:57.510Z,91.60
2023-01-17T08:37:43.299Z,91.90
2023-01-17T08:40:33.139Z,91.50
2023-01-17T08:43:18.751Z,91.50
2023-01-17T08:46:06.508Z,91.40
2023-01-17T08:48:58.805Z,91.40
2023-01-17T08:51:47.588Z,91.30
2023-01-17T08:54:33.536Z,91.20
2023-01-17T08:57:21.071Z,91.20
2023-01-17T09:00:07.696Z,91.20
2023-01-17T09:02:53.783Z,91.10
2023-01-17T09:05:42.233Z,91.00
2023-01-17T09:08:27.441Z,90.90
2023-01-17T09:11:15.127Z,90.90
2023-01-17T09:14:01.797Z,90.60
2023-01-17T09:16:48.546Z,90.30
2023-01-17T09:19:35.479Z,90.00
2023-01-17T09:22:24.125Z,89.20
2023-01-17T09:25:09.879Z,88.80
2023-01-17T09:27:55.410Z,88.50
2023-01-17T09:30:41.516Z,88.30
2023-01-17T09:33:26.631Z,87.80
2023-01-17T09:36:14.277Z,87.80
2023-01-17T09:39:01.867Z,88.00
2023-01-17T09:42:20.653Z,88.50
2023-01-17T09:45:16.316Z,88.80
2023-01-17T09:48:06.599Z,88.80
2023-01-17T09:50:59.997Z,88.50
2023-01-17T09:53:45.597Z,87.90
2023-01-17T09:56:40.067Z,87.60
2023-01-17T09:59:44.324Z,87.00
2023-01-17T10:02:45.837Z,86.60
2023-01-17T10:06:08.937Z,86.60
2023-01-17T10:09:21.512Z,86.90
2023-01-17T10:12:37.378Z,87.20
2023-01-17T10:15:50.894Z,87.30
2023-01-17T10:19:26.228Z,87.30
2023-01-17T10:22:26.438Z,87.40
2023-01-17T10:25:37.547Z,87.40
2023-01-17T10:28:34.197Z,87.60
2023-01-17T10:31:23.810Z,88.00
2023-01-17T10:34:17.254Z,88.10
2023-01-17T10:37:22.969Z,88.30
2023-01-17T10:40:20.644Z,88.50
2023-01-17T10:43:34.865Z,88.70
2023-01-17T10:46:28.670Z,88.50
2023-01-17T10:49:18.078Z,88.40
2023-01-17T10:52:19.761Z,88.40
2023-01-17T10:55:23.849Z,88.40
2023-01-17T10:58:12.502Z,88.10
2023-01-17T11:01:02.069Z,87.90
2023-01-17T11:03:51.455Z,87.90
2023-01-17T11:06:49.682Z,88.00
2023-01-17T11:09:47.784Z,88.00
2023-01-17T11:12:45.378Z,88.60
2023-01-17T11:15:34.871Z,89.00
2023-01-17T11:18:21.932Z,88.60
2023-01-17T11:21:23.298Z,88.70
2023-01-17T11:24:19.872Z,89.70
2023-01-17T11:27:06.630Z,90.10
2023-01-17T11:30:31.099Z,90.20
2023-01-17T11:33:30.855Z,90.30
2023-01-17T11:36:20.554Z,90.60
2023-01-17T11:39:18.769Z,90.00
2023-01-17T11:42:26.727Z,89.60
2023-01-17T11:45:27.472Z,90.00
2023-01-17T11:48:17.070Z,87.90
2023-01-17T11:51:04.079Z,85.80
2023-01-17T11:53:49.990Z,83.30
2023-01-17T11:56:37.051Z,79.20
2023-01-17T11:59:30.090Z,74.70
2023-01-17T12:02:43.568Z,63.70
2023-01-17T12:05:53.870Z,64.60
2023-01-17T12:08:51.280Z,65.30
2023-01-17T12:12:39.634Z,58.70
2023-01-17T12:15:46.712Z,58.50
2023-01-17T12:18:44.583Z,60.60
2023-01-17T12:21:38.980Z,57.80
2023-01-17T12:24:42.537Z,55.40
2023-01-17T12:27:48.699Z,56.20
2023-01-17T12:31:16.570Z,52.00
2023-01-17T12:34:30.188Z,50.80
2023-01-17T12:37:37.093Z,49.10
2023-01-17T12:40:30.411Z,45.60
2023-01-17T12:43:39.541Z,41.30
2023-01-17T12:46:31.564Z,42.60
2023-01-17T12:49:38.011Z,44.50
2023-01-17T12:52:38.635Z,42.60
2023-01-17T12:55:54.492Z,40.00
2023-01-17T12:58:41.511Z,38.70
2023-01-17T13:01:32.820Z,36.40
2023-01-17T13:04:57.358Z,38.70
2023-01-17T13:08:09.199Z,40.20
2023-01-17T13:11:06.686Z,42.00
2023-01-17T13:13:53.415Z,42.30
2023-01-17T13:16:42.257Z,41.10
2023-01-17T13:19:36.963Z,41.80
2023-01-17T13:22:28.130Z,41.90
2023-01-17T13:25:34.150Z,42.00
2023-01-17T13:28:47.520Z,40.70
2023-01-17T13:31:51.045Z,38.10
2023-01-17T13:34:43.691Z,40.40
2023-01-17T13:37:57.668Z,40.50
2023-01-17T13:41:06.485Z,39.10
2023-01-17T13:44:18.733Z,35.20
2023-01-17T13:47:17.037Z,35.60
2023-01-17T13:50:02.657Z,36.00
2023-01-17T13:52:55.366Z,37.40
2023-01-17T13:55:46.523Z,35.40
2023-01-17T13:58:50.523Z,35.70
2023-01-17T14:01:38.873Z,33.90
2023-01-17T14:04:25.644Z,35.50
2023-01-17T14:07:25.200Z,36.20
2023-01-17T14:10:39.322Z,34.30
2023-01-17T14:13:35.958Z,34.20
2023-01-17T14:16:21.903Z,36.20
2023-01-17T14:19:25.720Z,36.10
2023-01-17T14:22:21.792Z,35.30
2023-01-17T14:25:15.106Z,37.20
2023-01-17T14:28:05.324Z,35.00
2023-01-17T14:30:56.270Z,32.50
2023-01-17T14:33:41.873Z,34.60
2023-01-17T14:36:33.039Z,35.80
2023-01-17T14:39:22.641Z,34.30
2023-01-17T14:42:16.479Z,33.40
2023-01-17T14:45:09.792Z,36.00
2023-01-17T14:48:02.340Z,38.90
2023-01-17T14:50:54.163Z,38.40
2023-01-17T14:53:39.681Z,39.30
2023-01-17T14:56:30.093Z,42.00
2023-01-17T14:59:21.111Z,43.00
2023-01-17T15:02:16.114Z,44.00
2023-01-17T15:05:01.634Z,44.80
2023-01-17T15:07:53.108Z,44.40
2023-01-17T15:10:54.093Z,45.10
2023-01-17T15:13:45.004Z,46.00
2023-01-17T15:16:41.262Z,47.40
2023-01-17T15:19:26.959Z,48.40
2023-01-17T15:22:12.713Z,49.40
2023-01-17T15:24:59.161Z,49.60
2023-01-17T15:27:44.983Z,50.60
2023-01-17T15:30:33.588Z,50.90
2023-01-17T15:33:21.012Z,48.00
2023-01-17T15:36:08.658Z,48.60
2023-01-17T15:39:21.649Z,50.00
2023-01-17T15:42:19.636Z,50.30
2023-01-17T15:45:11.407Z,50.90
2023-01-17T15:47:57.619Z,52.40
2023-01-17T15:50:43.441Z,53.70
2023-01-17T15:53:32.073Z,55.10
2023-01-17T15:56:35.844Z,55.50
2023-01-17T15:59:36.574Z,56.90
2023-01-17T16:02:45.105Z,57.70
2023-01-17T16:05:34.623Z,59.10
2023-01-17T16:08:40.166Z,60.30
2023-01-17T16:11:25.531Z,61.50
2023-01-17T16:14:10.792Z,62.40
2023-01-17T16:16:56.514Z,63.80
2023-01-17T16:19:41.829Z,64.70
2023-01-17T16:22:27.557Z,65.60
2023-01-17T16:25:19.227Z,66.40
2023-01-17T16:28:06.594Z,67.30
2023-01-17T16:30:53.866Z,67.80
2023-01-17T16:33:42.376Z,68.40
2023-01-17T16:36:27.907Z,69.00
2023-01-17T16:39:15.377Z,69.60
2023-01-17T16:42:02.736Z,70.20
2023-01-17T16:44:48.340Z,70.80
2023-01-17T16:47:33.846Z,71.30
2023-01-17T16:50:22.793Z,71.60
2023-01-17T16:53:08.593Z,71.90
2023-01-17T16:56:05.420Z,72.20
2023-01-17T16:58:51.665Z,72.90
2023-01-17T17:01:39.733Z,73.30
2023-01-17T17:04:25.435Z,73.70
2023-01-17T17:07:11.011Z,74.00
2023-01-17T17:09:56.666Z,74.50
2023-01-17T17:12:42.841Z,75.00
2023-01-17T17:15:30.864Z,75.10
2023-01-17T17:18:18.442Z,75.50
2023-01-17T17:21:03.733Z,75.90
2023-01-17T17:23:56.714Z,76.40
2023-01-17T17:26:42.284Z,76.70
2023-01-17T17:29:27.819Z,76.90
2023-01-17T17:32:13.568Z,77.30
2023-01-17T17:34:58.980Z,77.80
2023-01-17T17:37:44.392Z,78.20
2023-01-17T17:40:29.956Z,78.50
2023-01-17T17:43:18.277Z,79.00
2023-01-17T17:46:07.721Z,79.20
2023-01-17T17:48:53.477Z,79.20
2023-01-17T17:51:40.566Z,79.60
2023-01-17T17:54:29.164Z,79.90
2023-01-17T17:57:14.643Z,80.20
2023-01-17T18:00:02.774Z,80.40
2023-01-17T18:02:52.492Z,80.70
2023-01-17T18:05:39.188Z,81.10
2023-01-17T18:08:24.776Z,81.20
2023-01-17T18:11:18.593Z,81.50
2023-01-17T18:14:06.082Z,81.90
2023-01-17T18:16:51.994Z,81.90
2023-01-17T18:19:38.100Z,82.10
2023-01-17T18:22:29.416Z,82.60
2023-01-17T18:25:15.047Z,82.90
2023-01-17T18:28:00.409Z,83.00
2023-01-17T18:30:46.046Z,83.20
2023-01-17T18:33:31.669Z,83.60
2023-01-17T18:36:24.671Z,83.80
2023-01-17T18:39:15.855Z,84.10
2023-01-17T18:42:01.503Z,84.00
2023-01-17T18:44:46.983Z,84.10
2023-01-17T18:47:32.499Z,84.20
2023-01-17T18:50:18.472Z,84.20
2023-01-17T18:53:06.359Z,84.30
2023-01-17T18:56:00.292Z,84.40
2023-01-17T18:58:47.755Z,84.30
2023-01-17T19:01:36.977Z,84.60
2023-01-17T19:04:25.479Z,85.10
2023-01-17T19:07:12.610Z,85.30
2023-01-17T19:10:00.983Z,85.50
2023-01-17T19:12:49.418Z,86.30
2023-01-17T19:15:36.363Z,85.70
2023-01-17T19:18:21.758Z,85.90
2023-01-17T19:21:13.079Z,86.10
2023-01-17T19:24:02.101Z,86.50
2023-01-17T19:26:51.338Z,86.90
2023-01-17T19:29:36.900Z,87.40
2023-01-17T19:32:22.482Z,87.30
2023-01-17T19:35:11.174Z,87.10
2023-01-17T19:37:57.059Z,86.90
2023-01-17T19:40:43.120Z,86.40
2023-01-17T19:43:28.418Z,87.00
2023-01-17T19:46:13.886Z,86.20
2023-01-17T19:48:59.761Z,86.20
2023-01-17T19:51:49.452Z,86.40
2023-01-17T19:54:36.591Z,86.50
2023-01-17T19:57:24.158Z,86.50
2023-01-17T20:00:13.228Z,86.60
2023-01-17T20:02:58.822Z,86.70
2023-01-17T20:05:46.097Z,86.90
2023-01-17T20:08:32.506Z,87.20
2023-01-17T20:11:21.624Z,87.40
2023-01-17T20:14:09.785Z,87.70
2023-01-17T20:16:55.001Z,88.00
2023-01-17T20:19:40.686Z,88.20
2023-01-17T20:22:29.117Z,88.40
2023-01-17T20:25:14.984Z,88.30
2023-01-17T20:28:00.208Z,88.30
2023-01-17T20:30:47.988Z,88.40
2023-01-17T20:33:33.610Z,88.50
2023-01-17T20:36:21.655Z,88.60
2023-01-17T20:39:08.374Z,88.90
2023-01-17T20:41:57.796Z,89.00
2023-01-17T20:44:46.616Z,89.20
2023-01-17T20:47:36.013Z,89.50
2023-01-17T20:50:43.181Z,90.00
2023-01-17T20:53:28.969Z,90.20
2023-01-17T20:56:15.513Z,90.30
2023-01-17T20:59:07.508Z,90.30
2023-01-17T21:01:52.968Z,90.50
2023-01-17T21:04:39.094Z,90.60
2023-01-17T21:07:26.037Z,90.60
2023-01-17T21:10:11.797Z,90.80
2023-01-17T21:12:57.509Z,91.00
2023-01-17T21:15:48.409Z,91.10
2023-01-17T21:18:37.161Z,91.10
2023-01-17T21:21:25.372Z,91.20
2023-01-17T21:24:16.472Z,91.20
2023-01-17T21:27:01.923Z,91.30
2023-01-17T21:30:08.823Z,91.30
2023-01-17T21:32:54.704Z,91.40
2023-01-17T21:35:39.984Z,91.30
2023-01-17T21:38:28.015Z,91.40
2023-01-17T21:41:13.396Z,91.40
2023-01-17T21:44:03.897Z,91.50
2023-01-17T21:46:54.296Z,91.60
2023-01-17T21:49:40.190Z,92.00
2023-01-17T21:52:25.976Z,91.70
2023-01-17T21:55:33.189Z,91.70
2023-01-17T22:01:42.595Z,91.80
2023-01-17T22:04:32.344Z,91.80
2023-01-17T22:07:31.687Z,91.80
2023-01-17T22:10:17.335Z,91.70
2023-01-17T22:13:02.808Z,91.80
2023-01-17T22:15:58.686Z,91.80
2023-01-17T22:18:45.192Z,91.70
2023-01-17T22:21:30.965Z,91.60
2023-01-17T22:24:17.385Z,92.00
2023-01-17T22:27:03.069Z,91.70
2023-01-17T22:29:48.859Z,91.80
2023-01-17T22:32:34.510Z,91.90
2023-01-17T22:35:20.300Z,92.10
2023-01-17T22:38:09.603Z,92.10
2023-01-17T22:41:05.349Z,92.20
2023-01-17T22:43:53.655Z,92.20
2023-01-17T22:46:39.314Z,92.20
2023-01-17T22:49:27.406Z,92.30
2023-01-17T22:52:15.797Z,92.20
2023-01-17T22:55:01.056Z,92.20
2023-01-17T22:57:46.872Z,92.20
2023-01-17T23:00:32.312Z,92.20
2023-01-17T23:03:17.841Z,92.10
2023-01-17T23:06:19.055Z,92.20
2023-01-17T23:09:10.832Z,92.30
2023-01-17T23:11:59.360Z,92.30
2023-01-17T23:15:03.360Z,92.30
2023-01-17T23:18:09.432Z,92.30
2023-01-17T23:20:54.956Z,92.30
2023-01-17T23:23:40.348Z,92.40
2023-01-17T23:27:07.051Z,92.50
2023-01-17T23:29:52.676Z,92.50
2023-01-17T23:32:39.972Z,92.40
2023-01-17T23:35:28.601Z,92.40
2023-01-17T23:38:54.079Z,92.40
2023-01-17T23:41:56.527Z,92.30
2023-01-17T23:44:42.040Z,92.30
2023-01-17T23:47:27.553Z,92.30
2023-01-17T23:50:15.637Z,92.40
2023-01-17T23:53:06.904Z,92.40
2023-01-17T23:55:56.709Z,92.40
2023-01-17T23:58:42.403Z,92.60
